Terminal Aerodrome Forecast
Issued by NWS Amarillo, TX

Home | Current Version | Previous Version | Text Only | Print | Product List | Glossary On
Versions: 1 2 3 4 5 6 7 8 9 10 11 12 13 14
000
FTUS44 KAMA 070520
TAFGUY
TAF
KGUY 070520Z 0706/0806 27008KT P6SM SKC
     FM070900 33010KT P6SM FEW300
     FM071700 01017G26KT P6SM SCT300
     FM080100 34012KT P6SM SCT300=

USA.gov is the U.S. government's official web portal to all federal, state and local government web resources and services.